Time;durP1;ratioP1;P1;durP2;ratioP2;P2;SDS_P1;SDS_P2;PMS_P1;PMS_P2;Temp;Humidity;BMP_temperature;BMP_pressure;BME280_temperature;BME280_humidity;BME280_pressure;Samples;Min_cycle;Max_cycle;Signal;HPM_P1;HPM_P2
2022/07/09 00:02:27;;;;;;;6.70;2.20;;;;;;;13.64;93.38;97360.28;108835;1264;22570;-82
2022/07/09 00:04:58;;;;;;;5.90;3.10;;;;;;;13.65;93.35;97357.84;108863;1264;22557;-82
2022/07/09 00:07:29;;;;;;;5.90;2.80;;;;;;;13.66;93.38;97361.41;108853;1264;22603;-82
2022/07/09 00:10:01;;;;;;;4.80;2.30;;;;;;;13.68;93.28;97365.93;108514;1264;140348;-81
2022/07/09 00:12:32;;;;;;;4.90;2.40;;;;;;;13.67;93.29;97363.59;108732;1264;25349;-82
2022/07/09 00:15:04;;;;;;;6.00;3.00;;;;;;;13.66;93.30;97360.81;108702;1264;22534;-82
2022/07/09 00:17:35;;;;;;;6.30;3.00;;;;;;;13.66;93.19;97363.33;108762;1264;22518;-82
2022/07/09 00:20:08;;;;;;;4.00;2.30;;;;;;;13.68;93.19;97360.65;108525;1264;79336;-82
2022/07/09 00:22:42;;;;;;;6.40;2.70;;;;;;;13.68;93.04;97361.77;108726;1264;22544;-82
2022/07/09 00:25:13;;;;;;;6.10;2.40;;;;;;;13.68;93.02;97362.35;108712;1264;25552;-82
2022/07/09 00:27:45;;;;;;;7.00;2.90;;;;;;;13.70;92.90;97366.21;108789;1262;22565;-81
2022/07/09 00:30:16;;;;;;;6.80;2.60;;;;;;;13.69;92.99;97365.17;108494;1264;102249;-82
2022/07/09 00:32:50;;;;;;;5.50;2.90;;;;;;;13.69;93.03;97362.46;108776;1264;22527;-82
2022/07/09 00:35:22;;;;;;;5.00;2.80;;;;;;;13.69;93.04;97360.27;108723;1264;25012;-82
2022/07/09 00:37:54;;;;;;;6.70;2.80;;;;;;;13.69;92.95;97358.30;108678;1264;23455;-82
2022/07/09 00:40:25;;;;;;;8.10;3.20;;;;;;;13.70;92.81;97364.36;108562;1264;100302;-82
2022/07/09 00:42:57;;;;;;;5.70;2.70;;;;;;;13.68;92.86;97363.11;108849;1264;22548;-82
2022/07/09 00:45:28;;;;;;;6.60;2.80;;;;;;;13.66;92.87;97362.31;108824;1264;22565;-82
2022/07/09 00:47:59;;;;;;;7.00;2.90;;;;;;;13.67;92.66;97356.83;108830;1264;25359;-82
2022/07/09 00:50:31;;;;;;;4.50;2.30;;;;;;;13.69;92.58;97355.36;108643;1264;77360;-82
2022/07/09 00:53:03;;;;;;;5.80;2.80;;;;;;;13.67;92.40;97354.15;108814;1264;25394;-82
2022/07/09 00:55:35;;;;;;;4.60;2.40;;;;;;;13.67;92.17;97356.98;108860;1264;23032;-82
2022/07/09 00:58:09;;;;;;;6.60;2.70;;;;;;;13.67;92.25;97357.56;108818;1264;24322;-82
2022/07/09 01:00:42;;;;;;;4.80;2.60;;;;;;;13.64;92.22;97354.52;108622;1264;95362;-82
2022/07/09 01:03:14;;;;;;;4.60;2.10;;;;;;;13.62;92.29;97354.27;108830;1264;22541;-82
2022/07/09 01:05:45;;;;;;;3.80;2.40;;;;;;;13.61;92.43;97354.34;108865;1264;24183;-82
2022/07/09 01:08:16;;;;;;;5.10;2.60;;;;;;;13.59;92.61;97349.36;108842;1263;22516;-82
2022/07/09 01:10:52;;;;;;;4.90;2.90;;;;;;;13.57;92.59;97351.45;108839;1263;23958;-82
2022/07/09 01:13:23;;;;;;;9.10;3.40;;;;;;;13.56;92.58;97346.63;108852;1264;23175;-82
2022/07/09 01:15:55;;;;;;;7.30;3.10;;;;;;;13.58;92.62;97345.16;108832;1264;22546;-82
2022/07/09 01:18:26;;;;;;;7.70;3.00;;;;;;;13.58;92.70;97346.92;108641;1263;98532;-82
2022/07/09 01:20:58;;;;;;;6.30;3.00;;;;;;;13.56;92.75;97341.50;108761;1264;22550;-82
2022/07/09 01:23:30;;;;;;;6.80;3.30;;;;;;;13.57;92.66;97344.73;108854;1264;22524;-82
2022/07/09 01:26:01;;;;;;;6.30;3.30;;;;;;;13.59;92.54;97345.78;108827;1264;22514;-82
2022/07/09 01:28:33;;;;;;;6.70;3.10;;;;;;;13.60;92.39;97341.36;108651;1264;77626;-82
2022/07/09 01:31:04;;;;;;;5.90;3.40;;;;;;;13.59;92.45;97342.37;108816;1263;22520;-82
2022/07/09 01:33:38;;;;;;;9.70;3.70;;;;;;;13.57;92.63;97332.60;108813;1264;22558;-82
2022/07/09 01:36:11;;;;;;;7.00;3.30;;;;;;;13.54;92.52;97336.41;108872;1263;22675;-82
2022/07/09 01:38:42;;;;;;;9.80;3.40;;;;;;;13.54;92.42;97329.21;108424;1264;87494;-81
2022/07/09 01:41:13;;;;;;;7.10;3.60;;;;;;;13.55;92.57;97331.93;108752;1264;22522;-82
2022/07/09 01:43:48;;;;;;;7.20;3.50;;;;;;;13.53;92.32;97322.04;108630;1264;22702;-82
2022/07/09 01:46:22;;;;;;;6.50;2.60;;;;;;;13.55;91.91;97328.52;108720;1264;22539;-82
2022/07/09 01:48:53;;;;;;;7.60;3.30;;;;;;;13.55;92.07;97328.08;108578;1264;75394;-82
2022/07/09 01:51:25;;;;;;;8.00;3.50;;;;;;;13.53;91.74;97324.85;108823;1264;22673;-82
2022/07/09 01:53:58;;;;;;;8.30;3.70;;;;;;;13.53;91.55;97319.31;108817;1264;25470;-82
2022/07/09 01:56:30;;;;;;;7.20;3.50;;;;;;;13.56;91.38;97317.58;108790;1264;22554;-82
2022/07/09 01:59:04;;;;;;;9.80;3.60;;;;;;;13.57;91.12;97316.40;108528;1264;146449;-82
2022/07/09 02:01:36;;;;;;;12.00;3.70;;;;;;;13.56;91.08;97315.40;108789;1264;23211;-82
2022/07/09 02:04:08;;;;;;;9.90;4.10;;;;;;;13.56;90.97;97310.55;108778;1264;22537;-82
2022/07/09 02:06:40;;;;;;;8.20;3.70;;;;;;;13.52;91.20;97308.88;108810;1264;22530;-82
2022/07/09 02:09:13;;;;;;;8.30;3.90;;;;;;;13.49;91.35;97307.50;108638;1264;82610;-82
2022/07/09 02:11:47;;;;;;;6.30;3.90;;;;;;;13.46;91.43;97307.11;108830;1264;22561;-82
2022/07/09 02:14:19;;;;;;;11.50;3.70;;;;;;;13.44;91.59;97304.31;108790;1263;22532;-82
2022/07/09 02:16:52;;;;;;;8.00;3.60;;;;;;;13.41;91.68;97302.15;108807;1264;22708;-82
2022/07/09 02:19:23;;;;;;;6.40;4.00;;;;;;;13.39;91.52;97304.47;108653;1263;79670;-82
2022/07/09 02:21:55;;;;;;;7.40;3.30;;;;;;;13.41;91.64;97300.02;108792;1263;22596;-82
2022/07/09 02:24:29;;;;;;;8.50;3.50;;;;;;;13.39;91.51;97301.52;108843;1264;24240;-82
2022/07/09 02:27:00;;;;;;;7.00;3.30;;;;;;;13.38;91.54;97299.57;108856;1264;23156;-82
2022/07/09 02:29:33;;;;;;;8.20;3.20;;;;;;;13.38;91.55;97298.83;108627;1263;103446;-82
2022/07/09 02:32:11;;;;;;;6.10;2.80;;;;;;;13.38;91.46;97294.55;108849;1263;22600;-82
2022/07/09 02:34:42;;;;;;;7.70;3.20;;;;;;;13.37;91.35;97292.27;108792;1264;22531;-82
2022/07/09 02:37:14;;;;;;;6.80;3.00;;;;;;;13.36;91.07;97292.10;108799;1264;23283;-81
2022/07/09 02:39:45;;;;;;;6.10;3.50;;;;;;;13.35;91.07;97292.60;108529;1264;96119;-82
2022/07/09 02:42:17;;;;;;;8.00;2.90;;;;;;;13.33;91.16;97294.85;108692;1263;22525;-82
2022/07/09 02:44:49;;;;;;;5.10;2.70;;;;;;;13.31;91.16;97291.25;108656;1264;23752;-82
2022/07/09 02:47:21;;;;;;;6.30;3.00;;;;;;;13.29;91.19;97290.26;108686;1264;22547;-82
2022/07/09 02:49:52;;;;;;;5.30;2.90;;;;;;;13.27;91.36;97286.27;108504;1264;115369;-82
2022/07/09 02:52:24;;;;;;;6.70;3.90;;;;;;;13.25;91.37;97288.11;108758;1264;22578;-82
2022/07/09 02:54:55;;;;;;;6.20;2.90;;;;;;;13.25;91.39;97293.96;108778;1264;24043;-81
2022/07/09 02:57:27;;;;;;;7.90;3.40;;;;;;;13.23;91.66;97292.11;108725;1264;22538;-82
2022/07/09 02:59:59;;;;;;;7.90;3.70;;;;;;;13.22;91.56;97288.39;108551;1264;93858;-82
2022/07/09 03:02:30;;;;;;;6.50;3.20;;;;;;;13.23;91.56;97287.75;108734;1263;22685;-82
2022/07/09 03:05:02;;;;;;;7.50;3.20;;;;;;;13.23;91.50;97282.63;108665;1264;22524;-82
2022/07/09 03:07:33;;;;;;;6.00;3.60;;;;;;;13.22;91.63;97283.43;108589;1264;22845;-82
2022/07/09 03:10:05;;;;;;;7.10;3.30;;;;;;;13.23;91.47;97280.40;108361;1264;155388;-82
2022/07/09 03:12:36;;;;;;;6.10;3.20;;;;;;;13.25;91.43;97284.88;108654;1264;23491;-82
2022/07/09 03:15:09;;;;;;;6.50;3.20;;;;;;;13.26;91.55;97288.27;108678;1264;22749;-82
2022/07/09 03:17:40;;;;;;;7.40;2.70;;;;;;;13.27;91.33;97287.98;108716;1264;22585;-82
2022/07/09 03:20:13;;;;;;;6.20;2.90;;;;;;;13.27;91.54;97284.80;108638;1264;91440;-82
2022/07/09 03:22:46;;;;;;;6.00;3.00;;;;;;;13.26;91.62;97285.59;108714;1264;22580;-82
2022/07/09 03:25:17;;;;;;;7.80;4.00;;;;;;;13.28;91.60;97287.45;108747;1264;25385;-82
2022/07/09 03:27:48;;;;;;;8.50;3.60;;;;;;;13.28;91.58;97287.66;108761;1263;22540;-82
2022/07/09 03:30:20;;;;;;;8.30;3.20;;;;;;;13.27;91.73;97291.88;108647;1264;82238;-81
2022/07/09 03:32:51;;;;;;;6.40;3.20;;;;;;;13.27;91.78;97293.54;108825;1263;22761;-81
2022/07/09 03:35:23;;;;;;;5.40;3.10;;;;;;;13.29;91.73;97286.96;108820;1264;23387;-82
2022/07/09 03:37:54;;;;;;;5.50;2.90;;;;;;;13.32;91.61;97290.83;108835;1264;24565;-81
2022/07/09 03:40:26;;;;;;;9.00;3.00;;;;;;;13.33;91.74;97288.73;108648;1263;97484;-81
2022/07/09 03:42:57;;;;;;;6.60;3.70;;;;;;;13.37;91.73;97290.03;108863;1264;22571;-82
2022/07/09 03:45:28;;;;;;;7.70;3.60;;;;;;;13.41;91.82;97289.59;108809;1264;22683;-82
2022/07/09 03:48:00;;;;;;;7.50;2.90;;;;;;;13.45;91.68;97294.13;108822;1264;22585;-82
2022/07/09 03:50:34;;;;;;;6.50;3.30;;;;;;;13.46;91.66;97288.84;108686;1264;105449;-82
2022/07/09 03:53:05;;;;;;;8.80;3.30;;;;;;;13.46;91.38;97290.77;108791;1264;22695;-81
2022/07/09 03:55:37;;;;;;;10.30;4.80;;;;;;;13.47;91.46;97286.70;108875;1264;23961;-82
2022/07/09 03:58:08;;;;;;;12.10;4.70;;;;;;;13.48;91.24;97288.11;108828;1264;22524;-82
2022/07/09 04:00:39;;;;;;;6.90;3.80;;;;;;;13.47;91.30;97283.23;108697;1264;78007;-82
2022/07/09 04:03:11;;;;;;;7.50;4.40;;;;;;;13.47;91.50;97282.76;108804;1264;22526;-82
2022/07/09 04:05:44;;;;;;;9.50;4.50;;;;;;;13.46;91.30;97286.86;108832;1264;22535;-82
2022/07/09 04:08:15;;;;;;;8.30;4.50;;;;;;;13.48;91.38;97287.00;108819;1264;22525;-82
2022/07/09 04:10:47;;;;;;;7.20;4.10;;;;;;;13.47;91.50;97285.47;108828;1264;22515;-82
2022/07/09 04:13:18;;;;;;;9.00;4.20;;;;;;;13.50;91.49;97288.42;108870;1264;22529;-82
2022/07/09 04:15:50;;;;;;;9.00;4.00;;;;;;;13.53;91.43;97285.91;108852;1264;25632;-82
2022/07/09 04:18:23;;;;;;;9.80;4.40;;;;;;;13.52;91.47;97279.80;108695;1264;87159;-81
2022/07/09 04:20:57;;;;;;;7.90;4.70;;;;;;;13.51;91.49;97280.21;108817;1264;24381;-82
2022/07/09 04:23:29;;;;;;;9.20;4.90;;;;;;;13.50;91.66;97279.04;108782;1264;22646;-82
2022/07/09 04:26:00;;;;;;;6.50;4.30;;;;;;;13.50;91.67;97280.00;108776;1264;25310;-82
2022/07/09 04:28:36;;;;;;;7.30;4.60;;;;;;;13.49;91.90;97276.29;108641;1264;93985;-81
2022/07/09 04:31:07;;;;;;;8.40;5.00;;;;;;;13.46;91.90;97275.52;108680;1263;22527;-82
2022/07/09 04:33:40;;;;;;;7.90;5.10;;;;;;;13.45;91.99;97275.04;108679;1263;22555;-82
2022/07/09 04:36:12;;;;;;;12.50;5.40;;;;;;;13.43;92.13;97269.69;108702;1264;22725;-82
2022/07/09 04:38:44;;;;;;;8.80;5.30;;;;;;;13.43;92.20;97266.08;108577;1264;77606;-81
2022/07/09 04:41:16;;;;;;;9.40;5.40;;;;;;;13.43;92.33;97272.52;108823;1263;25593;-81
2022/07/09 04:43:47;;;;;;;8.00;4.80;;;;;;;13.43;92.29;97271.82;108773;1264;22566;-82
2022/07/09 04:46:21;;;;;;;8.90;5.20;;;;;;;13.45;92.08;97273.89;108820;1264;22530;-81
2022/07/09 04:48:52;;;;;;;7.00;4.70;;;;;;;13.44;91.98;97278.52;108518;1264;124191;-81
2022/07/09 04:51:24;;;;;;;7.90;4.20;;;;;;;13.41;91.92;97277.50;108791;1264;23297;-81
2022/07/09 04:53:55;;;;;;;8.70;4.00;;;;;;;13.42;91.93;97285.68;108797;1264;22561;-81
2022/07/09 04:56:27;;;;;;;5.50;3.30;;;;;;;13.45;91.87;97288.84;108787;1264;25239;-81
2022/07/09 04:59:00;;;;;;;6.80;4.10;;;;;;;13.49;91.90;97287.64;108626;1264;71953;-82
2022/07/09 05:01:34;;;;;;;9.50;4.30;;;;;;;13.50;91.65;97288.58;108726;1264;22556;-81
2022/07/09 05:04:06;;;;;;;5.60;3.30;;;;;;;13.53;91.74;97291.23;108676;1264;22530;-82
2022/07/09 05:06:38;;;;;;;11.20;4.20;;;;;;;13.56;91.50;97295.67;108704;1264;22525;-81
2022/07/09 05:09:09;;;;;;;6.20;4.40;;;;;;;13.56;91.28;97299.36;107038;1262;2051419;-81
2022/07/09 05:11:40;;;;;;;5.80;3.70;;;;;;;13.60;91.23;97302.03;108810;1264;24313;-82
2022/07/09 05:14:14;;;;;;;10.00;4.00;;;;;;;13.66;91.43;97302.14;108826;1264;22697;-81
2022/07/09 05:16:45;;;;;;;7.60;5.00;;;;;;;13.75;91.11;97299.88;108794;1264;25299;-81
2022/07/09 05:19:20;;;;;;;7.80;4.60;;;;;;;13.74;90.88;97299.08;108594;1264;82325;-81
2022/07/09 05:21:51;;;;;;;10.30;5.40;;;;;;;13.78;90.96;97297.38;108741;1264;22525;-82
2022/07/09 05:24:26;;;;;;;10.70;5.70;;;;;;;13.78;90.52;97296.12;108778;1263;22561;-81
2022/07/09 05:26:59;;;;;;;8.50;5.10;;;;;;;13.69;90.40;97295.04;108629;1264;22524;-82
2022/07/09 05:29:30;;;;;;;8.30;5.10;;;;;;;13.68;90.54;97294.23;108580;1264;109122;-82
2022/07/09 05:32:04;;;;;;;11.10;5.10;;;;;;;13.65;90.47;97299.38;108794;1264;22524;-82
2022/07/09 05:34:38;;;;;;;8.60;4.50;;;;;;;13.63;90.59;97300.13;108798;1264;22636;-82
2022/07/09 05:37:10;;;;;;;12.90;5.20;;;;;;;13.63;90.64;97299.70;108832;1264;22578;-81
2022/07/09 05:39:42;;;;;;;5.60;4.30;;;;;;;13.61;90.65;97300.69;108357;1264;169472;-81
2022/07/09 05:42:13;;;;;;;7.50;5.10;;;;;;;13.62;90.82;97304.04;108721;1264;22510;-81
2022/07/09 05:44:45;;;;;;;7.60;4.30;;;;;;;13.65;90.75;97302.74;108691;1264;22557;-81
2022/07/09 05:47:17;;;;;;;8.00;4.50;;;;;;;13.69;90.72;97305.11;108684;1263;22806;-81
2022/07/09 05:49:49;;;;;;;7.10;4.20;;;;;;;13.69;90.40;97301.53;108386;1264;163075;-81
2022/07/09 05:52:23;;;;;;;7.80;4.00;;;;;;;13.69;90.35;97300.84;108652;1264;22518;-81
2022/07/09 05:54:54;;;;;;;5.30;4.40;;;;;;;13.72;90.30;97297.78;108662;1264;22518;-81
2022/07/09 05:57:26;;;;;;;7.70;3.80;;;;;;;13.76;90.27;97296.18;108681;1264;25400;-81
2022/07/09 05:59:58;;;;;;;8.30;3.50;;;;;;;13.83;90.05;97291.64;108544;1264;108661;-81
2022/07/09 06:02:30;;;;;;;5.60;2.80;;;;;;;13.92;89.60;97286.21;108809;1264;22648;-81
2022/07/09 06:05:02;;;;;;;7.70;3.80;;;;;;;14.01;89.38;97289.21;108613;1264;22518;-81
2022/07/09 06:07:35;;;;;;;3.70;2.70;;;;;;;14.09;88.82;97290.69;108802;1264;22528;-81
2022/07/09 06:10:12;;;;;;;3.40;2.30;;;;;;;14.08;88.04;97291.65;108649;1264;104570;-81
2022/07/09 06:12:44;;;;;;;5.10;2.40;;;;;;;14.06;88.05;97289.89;108796;1264;24229;-81
2022/07/09 06:15:16;;;;;;;6.70;2.30;;;;;;;14.07;87.93;97291.49;108778;1264;22532;-82
2022/07/09 06:17:50;;;;;;;4.70;2.20;;;;;;;14.16;87.77;97292.35;108795;1263;23381;-81
2022/07/09 06:20:25;;;;;;;4.60;2.10;;;;;;;14.31;87.78;97283.17;108523;1264;98705;-82
2022/07/09 06:22:59;;;;;;;4.60;1.90;;;;;;;14.57;87.65;97279.72;108731;1264;22778;-82
2022/07/09 06:25:31;;;;;;;6.30;2.40;;;;;;;14.76;86.60;97277.31;108707;1264;22528;-82
2022/07/09 06:28:03;;;;;;;4.70;2.20;;;;;;;14.73;85.74;97275.55;108694;1264;22540;-82
2022/07/09 06:30:35;;;;;;;4.60;2.30;;;;;;;14.74;85.62;97276.34;108545;1264;90964;-82
2022/07/09 06:33:07;;;;;;;5.90;2.40;;;;;;;14.69;85.13;97273.65;108712;1263;22530;-82
2022/07/09 06:35:41;;;;;;;5.90;1.90;;;;;;;14.70;85.49;97276.24;108760;1264;24242;-82
2022/07/09 06:38:13;;;;;;;6.40;2.80;;;;;;;14.99;86.21;97274.38;108798;1264;23912;-82
2022/07/09 06:40:48;;;;;;;5.70;2.50;;;;;;;15.34;85.60;97271.48;108745;1264;44217;-82
2022/07/09 06:43:21;;;;;;;6.70;2.40;;;;;;;15.42;83.80;97272.20;108878;1264;22531;-82
2022/07/09 06:45:55;;;;;;;3.40;2.20;;;;;;;15.36;83.47;97270.77;108856;1264;22534;-82
2022/07/09 06:48:27;;;;;;;4.90;2.50;;;;;;;15.33;83.14;97270.05;108644;1264;86673;-81
2022/07/09 06:51:01;;;;;;;7.00;3.70;;;;;;;15.35;82.70;97271.64;108869;1264;23511;-82
2022/07/09 06:53:33;;;;;;;4.90;2.10;;;;;;;15.51;82.75;97268.76;108825;1264;22531;-82
2022/07/09 06:56:05;;;;;;;3.70;1.90;;;;;;;17.59;83.97;97264.09;108809;1264;22632;-82
2022/07/09 06:58:37;;;;;;;4.30;1.70;;;;;;;20.54;76.72;97264.60;108584;1264;106490;-82
2022/07/09 07:01:10;;;;;;;4.70;2.10;;;;;;;20.66;72.30;97262.41;108801;1264;22571;-82
2022/07/09 07:03:43;;;;;;;7.10;2.10;;;;;;;21.64;71.73;97256.67;108811;1264;24394;-83
2022/07/09 07:06:16;;;;;;;3.20;1.60;;;;;;;23.51;67.45;97256.58;108875;1264;24492;-82
2022/07/09 07:08:48;;;;;;;4.80;1.50;;;;;;;23.21;64.47;97253.45;108609;1264;104777;-83
2022/07/09 07:11:26;;;;;;;5.70;2.40;;;;;;;23.95;63.05;97247.69;108683;1264;22827;-82
2022/07/09 07:13:58;;;;;;;2.90;1.70;;;;;;;22.75;61.73;97249.85;108869;1264;22526;-82
2022/07/09 07:16:36;;;;;;;6.40;2.20;;;;;;;21.58;61.60;97251.11;108728;1264;22529;-82
2022/07/09 07:19:09;;;;;;;9.10;2.50;;;;;;;20.02;62.55;97254.73;108616;1263;123434;-82
2022/07/09 07:21:45;;;;;;;5.50;2.80;;;;;;;18.81;64.54;97254.65;108780;1264;22600;-81
2022/07/09 07:24:17;;;;;;;5.10;3.00;;;;;;;17.72;66.20;97257.54;108766;1264;22567;-81
2022/07/09 07:26:51;;;;;;;8.90;3.40;;;;;;;17.19;68.77;97257.59;108794;1264;22512;-82
2022/07/09 07:29:23;;;;;;;5.70;3.70;;;;;;;17.14;70.49;97261.14;108606;1264;124505;-81
2022/07/09 07:31:56;;;;;;;5.30;3.20;;;;;;;17.32;71.50;97255.44;108755;1264;22513;-82
2022/07/09 07:34:28;;;;;;;7.90;3.20;;;;;;;17.28;71.03;97249.73;108757;1264;23147;-81
2022/07/09 07:37:03;;;;;;;5.60;3.50;;;;;;;17.51;71.80;97245.30;108840;1264;24222;-82
2022/07/09 07:39:34;;;;;;;3.80;1.90;;;;;;;18.29;72.36;97241.48;108482;1264;142001;-82
2022/07/09 07:42:08;;;;;;;3.70;2.20;;;;;;;20.70;69.54;97233.50;108534;1265;22571;-82
2022/07/09 07:44:39;;;;;;;5.10;1.70;;;;;;;21.51;65.36;97230.06;108817;1264;22581;-82
2022/07/09 07:47:13;;;;;;;2.40;1.70;;;;;;;20.59;60.69;97227.25;108781;1264;22618;-82
2022/07/09 07:49:45;;;;;;;3.90;1.90;;;;;;;19.58;61.51;97233.17;108565;1264;88842;-81
2022/07/09 07:52:18;;;;;;;4.60;1.60;;;;;;;18.58;62.53;97229.06;108735;1264;22525;-82
2022/07/09 07:54:57;;;;;;;4.50;1.80;;;;;;;17.68;64.92;97231.72;108789;1263;22513;-82
2022/07/09 07:57:33;;;;;;;4.60;2.40;;;;;;;17.54;66.75;97231.32;108769;1264;22530;-82
2022/07/09 08:00:08;;;;;;;4.70;3.20;;;;;;;17.72;67.79;97230.67;108654;1264;70891;-82
2022/07/09 08:02:43;;;;;;;6.60;3.00;;;;;;;17.59;68.06;97231.60;108821;1264;22550;-82
2022/07/09 08:05:16;;;;;;;4.70;2.80;;;;;;;17.91;68.94;97224.69;108808;1264;25288;-82
2022/07/09 08:07:49;;;;;;;4.50;2.60;;;;;;;19.12;69.32;97225.45;108818;1264;22557;-82
2022/07/09 08:10:21;;;;;;;5.50;2.30;;;;;;;21.46;68.80;97219.84;108573;1264;73386;-82
2022/07/09 08:12:57;;;;;;;4.10;1.90;;;;;;;23.62;63.66;97216.03;108705;1264;22532;-82
2022/07/09 08:15:29;;;;;;;3.40;1.60;;;;;;;23.41;57.08;97217.88;108731;1264;22538;-82
2022/07/09 08:18:01;;;;;;;3.80;1.80;;;;;;;22.96;56.80;97215.58;108722;1264;22541;-82
2022/07/09 08:20:35;;;;;;;2.10;1.40;;;;;;;23.48;54.78;97215.00;108591;1264;112718;-82
2022/07/09 08:23:07;;;;;;;3.70;1.40;;;;;;;22.36;53.96;97214.19;108784;1264;24250;-82
2022/07/09 08:25:46;;;;;;;6.00;1.90;;;;;;;21.98;54.50;97215.20;108789;1264;22575;-82
2022/07/09 08:28:17;;;;;;;4.10;1.50;;;;;;;21.14;56.49;97220.15;108821;1264;22532;-82
2022/07/09 08:30:49;;;;;;;3.60;1.70;;;;;;;21.37;57.74;97220.31;108793;1264;22650;-82
2022/07/09 08:33:21;;;;;;;3.00;1.30;;;;;;;22.36;56.17;97216.20;108813;1264;24292;-82
2022/07/09 08:35:53;;;;;;;2.40;1.10;;;;;;;22.22;53.89;97215.13;108781;1265;24554;-82
2022/07/09 08:38:26;;;;;;;1.80;1.10;;;;;;;21.98;53.75;97211.96;108587;1264;100952;-82
2022/07/09 08:41:01;;;;;;;4.30;1.30;;;;;;;22.00;54.60;97213.33;108750;1264;22549;-82
2022/07/09 08:43:35;;;;;;;1.90;1.00;;;;;;;21.80;54.54;97214.17;108766;1264;24334;-82
2022/07/09 08:46:07;;;;;;;2.00;1.00;;;;;;;21.20;53.80;97211.82;108722;1264;22741;-82
2022/07/09 08:48:40;;;;;;;1.90;1.00;;;;;;;20.92;55.68;97212.89;108557;1265;85810;-81
2022/07/09 08:51:13;;;;;;;3.00;1.20;;;;;;;21.25;54.86;97209.29;108789;1265;22551;-82
2022/07/09 08:53:46;;;;;;;4.80;1.50;;;;;;;21.10;54.57;97207.48;108823;1264;22513;-82
2022/07/09 08:56:18;;;;;;;2.80;1.30;;;;;;;20.44;55.00;97217.16;108797;1264;22616;-81
2022/07/09 08:58:49;;;;;;;3.90;1.80;;;;;;;20.04;55.50;97221.67;108541;1264;127515;-82
2022/07/09 09:01:21;;;;;;;3.50;1.30;;;;;;;19.55;56.52;97222.35;108726;1264;25300;-82
2022/07/09 09:03:54;;;;;;;3.80;1.10;;;;;;;19.35;57.48;97214.42;108730;1264;24426;-82
2022/07/09 09:06:26;;;;;;;5.20;1.50;;;;;;;19.24;57.88;97211.20;108712;1265;22528;-82
2022/07/09 09:09:01;;;;;;;2.90;1.00;;;;;;;19.33;59.08;97217.33;108520;1265;72580;-81
2022/07/09 09:11:36;;;;;;;4.10;1.50;;;;;;;19.55;59.17;97220.59;108727;1265;22526;-82
2022/07/09 09:14:09;;;;;;;3.60;1.00;;;;;;;19.56;57.97;97215.83;108713;1264;22574;-82
2022/07/09 09:16:45;;;;;;;5.20;1.30;;;;;;;19.70;59.24;97208.05;108742;1263;22611;-82
2022/07/09 09:19:17;;;;;;;2.40;1.10;;;;;;;19.78;57.82;97208.02;108428;1264;121404;-82
2022/07/09 09:21:54;;;;;;;3.80;1.60;;;;;;;19.63;58.62;97209.38;108708;1265;25487;-81
2022/07/09 09:24:30;;;;;;;3.50;1.20;;;;;;;19.84;58.77;97207.70;108586;1264;22538;-82
2022/07/09 09:27:03;;;;;;;2.50;1.20;;;;;;;20.14;57.50;97202.41;108759;1264;22538;-82
2022/07/09 09:29:39;;;;;;;3.70;1.10;;;;;;;19.95;56.14;97204.08;108579;1265;100321;-82
2022/07/09 09:32:15;;;;;;;2.00;1.00;;;;;;;19.49;56.20;97206.36;108693;1265;22519;-82
2022/07/09 09:34:52;;;;;;;3.10;1.20;;;;;;;19.27;56.49;97202.88;108742;1265;22531;-82
2022/07/09 09:37:32;;;;;;;1.90;1.10;;;;;;;19.11;56.67;97204.41;108685;1265;23199;-81
2022/07/09 09:40:11;;;;;;;2.70;0.90;;;;;;;19.00;57.47;97193.67;107587;1264;1312822;-81
2022/07/09 09:42:51;;;;;;;2.40;1.10;;;;;;;19.04;57.32;97191.23;108779;1265;22573;-82
2022/07/09 09:45:23;;;;;;;1.50;0.60;;;;;;;19.31;57.42;97191.08;108780;1264;22526;-81
2022/07/09 09:47:56;;;;;;;1.70;0.80;;;;;;;19.47;56.64;97187.88;108761;1265;24331;-82
2022/07/09 09:50:29;;;;;;;1.60;1.00;;;;;;;19.69;56.52;97186.37;108622;1263;72139;-82
2022/07/09 09:53:04;;;;;;;3.40;1.10;;;;;;;20.16;56.86;97187.13;108619;1265;22539;-82
2022/07/09 09:55:40;;;;;;;1.20;0.80;;;;;;;20.91;57.82;97183.36;108733;1265;22551;-82
2022/07/09 09:58:15;;;;;;;2.90;1.10;;;;;;;21.62;55.57;97178.50;108759;1265;22874;-83
2022/07/09 10:00:50;;;;;;;2.60;1.20;;;;;;;21.79;55.58;97173.66;108734;1264;22704;-82
2022/07/09 10:03:25;;;;;;;3.50;1.40;;;;;;;21.84;55.06;97167.27;108743;1265;22549;-82
2022/07/09 10:05:56;;;;;;;3.40;1.20;;;;;;;21.98;54.76;97169.08;108783;1265;22530;-82
2022/07/09 10:08:30;;;;;;;1.60;0.90;;;;;;;21.76;53.94;97169.39;108548;1263;95034;-82
2022/07/09 10:11:07;;;;;;;1.90;0.90;;;;;;;21.97;53.23;97168.42;108770;1265;22630;-83
2022/07/09 10:13:55;;;;;;;1.90;1.00;;;;;;;21.55;52.26;97166.24;108807;1265;22522;-82
2022/07/09 10:16:43;;;;;;;2.20;1.00;;;;;;;21.15;51.58;97167.95;108648;1265;22529;-82
2022/07/09 10:19:25;;;;;;;;;;;;;;;20.69;52.93;97167.84;108549;1265;110205;-82
2022/07/09 10:22:01;;;;;;;2.20;0.90;;;;;;;20.78;54.08;97168.46;108705;1265;25516;-82
2022/07/09 10:24:40;;;;;;;2.60;1.20;;;;;;;20.92;53.60;97165.66;108673;1265;22627;-81
2022/07/09 10:27:22;;;;;;;4.30;1.10;;;;;;;20.90;54.03;97157.59;108661;1264;24237;-81
2022/07/09 10:30:23;;;;;;;1.20;0.70;;;;;;;21.16;53.14;97152.39;108380;1265;138754;-82
2022/07/09 10:33:09;;;;;;;1.40;1.00;;;;;;;20.59;51.91;97146.17;108578;1264;24259;-81
2022/07/09 10:35:52;;;;;;;1.70;0.90;;;;;;;20.15;52.85;97148.77;108680;1265;22704;-82
2022/07/09 10:38:39;;;;;;;2.40;1.10;;;;;;;20.14;52.49;97146.73;106917;1265;2044624;-81
2022/07/09 10:41:32;;;;;;;2.90;1.10;;;;;;;20.40;54.33;97136.20;108611;1265;22525;-81
2022/07/09 10:47:00;;;;;;;1.60;1.00;;;;;;;20.43;51.86;97130.16;108638;1265;24226;-82
2022/07/09 10:49:37;;;;;;;1.80;1.20;;;;;;;20.16;50.45;97135.47;108344;1265;110344;-81
2022/07/09 10:52:14;;;;;;;1.40;0.90;;;;;;;19.85;51.14;97135.72;108751;1264;22541;-82
2022/07/09 10:54:55;;;;;;;1.50;1.00;;;;;;;19.90;51.67;97128.21;108618;1265;22583;-81
2022/07/09 10:57:32;;;;;;;2.60;1.40;;;;;;;19.98;51.96;97123.77;108654;1265;25540;-81
2022/07/09 11:00:04;;;;;;;2.90;1.30;;;;;;;19.86;51.67;97131.79;108284;1265;329655;-81
2022/07/09 11:02:53;;;;;;;2.10;1.10;;;;;;;19.50;52.13;97129.88;108673;1265;22522;-82
2022/07/09 11:05:31;;;;;;;3.70;1.20;;;;;;;19.01;53.80;97134.77;108691;1265;25279;-81
2022/07/09 11:08:08;;;;;;;5.10;1.60;;;;;;;18.72;55.32;97133.10;108702;1265;23433;-81
2022/07/09 11:10:45;;;;;;;1.60;1.10;;;;;;;18.53;55.36;97131.09;106679;1265;2590262;-81
2022/07/09 11:13:24;;;;;;;1.70;1.00;;;;;;;18.44;56.28;97132.30;108755;1264;22534;-81
2022/07/09 11:16:06;;;;;;;3.80;1.10;;;;;;;18.52;56.76;97129.59;108776;1265;22572;-81
2022/07/09 11:18:42;;;;;;;1.30;1.20;;;;;;;18.67;56.48;97129.35;108561;1264;73056;-80
2022/07/09 11:21:17;;;;;;;2.20;1.00;;;;;;;18.96;55.82;97131.40;108732;1265;22584;-80
2022/07/09 11:23:56;;;;;;;2.10;1.40;;;;;;;19.22;55.04;97131.23;108752;1265;24306;-81
2022/07/09 11:26:33;;;;;;;3.30;1.10;;;;;;;19.54;54.26;97123.48;108805;1265;24319;-80
2022/07/09 11:29:12;;;;;;;2.30;1.10;;;;;;;19.82;53.63;97127.21;104486;1264;5291685;-81
2022/07/09 11:32:02;;;;;;;2.60;1.30;;;;;;;19.82;52.86;97122.15;108640;1264;22566;-81
2022/07/09 11:34:36;;;;;;;2.10;1.20;;;;;;;19.87;53.51;97121.05;108637;1265;22552;-81
2022/07/09 11:37:13;;;;;;;2.40;1.30;;;;;;;19.73;52.70;97121.09;108652;1265;22531;-80
2022/07/09 11:39:56;;;;;;;3.10;1.20;;;;;;;19.68;53.50;97114.44;108473;1264;90688;-80
2022/07/09 11:42:32;;;;;;;2.10;1.10;;;;;;;19.99;53.10;97104.20;108779;1265;22535;-81
2022/07/09 11:45:04;;;;;;;2.40;1.10;;;;;;;20.10;52.14;97103.93;108760;1263;22518;-81
2022/07/09 11:47:45;;;;;;;3.30;1.20;;;;;;;20.08;51.55;97102.95;108846;1264;22533;-80
2022/07/09 11:50:22;;;;;;;1.90;1.30;;;;;;;20.17;51.72;97095.05;108565;1264;99091;-80
2022/07/09 11:52:56;;;;;;;3.00;1.50;;;;;;;20.28;51.44;97085.00;108827;1264;25244;-80
2022/07/09 11:55:40;;;;;;;1.90;1.50;;;;;;;20.28;51.70;97077.68;108820;1265;22563;-81
2022/07/09 11:58:14;;;;;;;1.60;1.30;;;;;;;20.46;51.73;97075.80;108807;1264;22534;-81